sensor_id;sensor_type;location;lat;lon;timestamp;P1;durP1;ratioP1;P2;durP2;ratioP2
17636;SDS011;8937;51.236;6.794;2023-03-01T00:04:46;2.97;;;2.77;;
17636;SDS011;8937;51.236;6.794;2023-03-01T00:13:07;3.70;;;3.07;;
17636;SDS011;8937;51.236;6.794;2023-03-01T00:21:30;3.07;;;2.60;;
17636;SDS011;8937;51.236;6.794;2023-03-01T00:29:52;2.93;;;2.53;;
17636;SDS011;8937;51.236;6.794;2023-03-01T00:38:14;2.87;;;2.53;;
17636;SDS011;8937;51.236;6.794;2023-03-01T00:46:36;2.37;;;2.17;;
17636;SDS011;8937;51.236;6.794;2023-03-01T00:54:58;2.60;;;2.40;;
17636;SDS011;8937;51.236;6.794;2023-03-01T01:03:21;2.40;;;2.20;;
17636;SDS011;8937;51.236;6.794;2023-03-01T01:11:45;2.40;;;2.30;;
17636;SDS011;8937;51.236;6.794;2023-03-01T01:20:06;3.00;;;2.80;;
17636;SDS011;8937;51.236;6.794;2023-03-01T01:28:29;3.20;;;2.90;;
17636;SDS011;8937;51.236;6.794;2023-03-01T01:36:51;3.20;;;3.00;;
17636;SDS011;8937;51.236;6.794;2023-03-01T01:45:28;4.33;;;2.73;;
17636;SDS011;8937;51.236;6.794;2023-03-01T01:53:51;4.13;;;2.50;;
17636;SDS011;8937;51.236;6.794;2023-03-01T02:02:14;3.93;;;2.47;;
17636;SDS011;8937;51.236;6.794;2023-03-01T02:10:36;2.63;;;2.43;;
17636;SDS011;8937;51.236;6.794;2023-03-01T02:18:59;3.23;;;2.97;;
17636;SDS011;8937;51.236;6.794;2023-03-01T02:27:23;5.77;;;3.10;;
17636;SDS011;8937;51.236;6.794;2023-03-01T02:35:48;3.40;;;3.07;;
17636;SDS011;8937;51.236;6.794;2023-03-01T02:44:10;3.37;;;3.00;;
17636;SDS011;8937;51.236;6.794;2023-03-01T02:52:36;3.33;;;3.10;;
17636;SDS011;8937;51.236;6.794;2023-03-01T03:00:58;5.10;;;3.20;;
17636;SDS011;8937;51.236;6.794;2023-03-01T03:09:22;3.13;;;2.77;;
17636;SDS011;8937;51.236;6.794;2023-03-01T03:17:43;3.30;;;2.77;;
17636;SDS011;8937;51.236;6.794;2023-03-01T03:26:06;3.67;;;3.20;;
17636;SDS011;8937;51.236;6.794;2023-03-01T03:34:28;4.67;;;4.00;;
17636;SDS011;8937;51.236;6.794;2023-03-01T03:42:51;5.23;;;3.63;;
17636;SDS011;8937;51.236;6.794;2023-03-01T03:51:12;3.63;;;3.23;;
17636;SDS011;8937;51.236;6.794;2023-03-01T03:59:35;4.03;;;3.63;;
17636;SDS011;8937;51.236;6.794;2023-03-01T04:07:57;4.00;;;3.47;;
17636;SDS011;8937;51.236;6.794;2023-03-01T04:16:28;3.80;;;3.47;;
17636;SDS011;8937;51.236;6.794;2023-03-01T04:24:49;4.47;;;3.83;;
17636;SDS011;8937;51.236;6.794;2023-03-01T04:33:12;4.43;;;4.03;;
17636;SDS011;8937;51.236;6.794;2023-03-01T04:41:33;3.87;;;3.43;;
17636;SDS011;8937;51.236;6.794;2023-03-01T04:49:56;4.20;;;3.80;;
17636;SDS011;8937;51.236;6.794;2023-03-01T04:58:17;5.93;;;4.57;;
17636;SDS011;8937;51.236;6.794;2023-03-01T05:06:40;10.60;;;5.00;;
17636;SDS011;8937;51.236;6.794;2023-03-01T05:15:02;9.73;;;5.13;;
17636;SDS011;8937;51.236;6.794;2023-03-01T05:23:28;5.13;;;4.23;;
17636;SDS011;8937;51.236;6.794;2023-03-01T05:31:49;5.60;;;3.90;;
17636;SDS011;8937;51.236;6.794;2023-03-01T05:40:13;7.70;;;4.67;;
17636;SDS011;8937;51.236;6.794;2023-03-01T05:48:36;4.87;;;3.70;;
17636;SDS011;8937;51.236;6.794;2023-03-01T05:57:00;4.83;;;3.67;;
17636;SDS011;8937;51.236;6.794;2023-03-01T06:05:21;4.23;;;3.30;;
17636;SDS011;8937;51.236;6.794;2023-03-01T06:13:44;3.70;;;3.40;;
17636;SDS011;8937;51.236;6.794;2023-03-01T06:22:06;5.07;;;3.70;;
17636;SDS011;8937;51.236;6.794;2023-03-01T06:30:29;5.63;;;4.03;;
17636;SDS011;8937;51.236;6.794;2023-03-01T06:38:51;4.30;;;3.60;;
17636;SDS011;8937;51.236;6.794;2023-03-01T06:47:13;4.67;;;3.67;;
17636;SDS011;8937;51.236;6.794;2023-03-01T06:55:35;5.53;;;3.93;;
17636;SDS011;8937;51.236;6.794;2023-03-01T07:03:58;4.90;;;4.07;;
17636;SDS011;8937;51.236;6.794;2023-03-01T07:12:19;4.80;;;3.63;;
17636;SDS011;8937;51.236;6.794;2023-03-01T07:20:42;4.17;;;3.77;;
17636;SDS011;8937;51.236;6.794;2023-03-01T07:29:04;4.13;;;3.70;;
17636;SDS011;8937;51.236;6.794;2023-03-01T07:37:27;5.53;;;3.40;;
17636;SDS011;8937;51.236;6.794;2023-03-01T07:45:48;4.40;;;4.00;;
17636;SDS011;8937;51.236;6.794;2023-03-01T07:54:11;4.90;;;4.03;;
17636;SDS011;8937;51.236;6.794;2023-03-01T08:02:33;4.43;;;4.00;;
17636;SDS011;8937;51.236;6.794;2023-03-01T08:10:57;5.53;;;3.83;;
17636;SDS011;8937;51.236;6.794;2023-03-01T08:19:19;4.47;;;4.03;;
17636;SDS011;8937;51.236;6.794;2023-03-01T08:27:42;6.27;;;4.50;;
17636;SDS011;8937;51.236;6.794;2023-03-01T08:36:04;5.83;;;4.80;;
17636;SDS011;8937;51.236;6.794;2023-03-01T08:44:28;6.67;;;5.70;;
17636;SDS011;8937;51.236;6.794;2023-03-01T08:52:49;8.70;;;6.27;;
17636;SDS011;8937;51.236;6.794;2023-03-01T09:01:13;7.00;;;4.83;;
17636;SDS011;8937;51.236;6.794;2023-03-01T09:09:35;5.93;;;4.70;;
17636;SDS011;8937;51.236;6.794;2023-03-01T09:17:58;6.37;;;4.93;;
17636;SDS011;8937;51.236;6.794;2023-03-01T09:26:20;8.00;;;5.43;;
17636;SDS011;8937;51.236;6.794;2023-03-01T09:34:44;13.00;;;6.53;;
17636;SDS011;8937;51.236;6.794;2023-03-01T09:43:25;7.00;;;5.20;;
17636;SDS011;8937;51.236;6.794;2023-03-01T09:51:55;7.67;;;5.60;;
17636;SDS011;8937;51.236;6.794;2023-03-01T10:00:26;8.17;;;5.63;;
17636;SDS011;8937;51.236;6.794;2023-03-01T10:08:52;7.67;;;5.57;;
17636;SDS011;8937;51.236;6.794;2023-03-01T10:17:17;5.30;;;4.77;;
17636;SDS011;8937;51.236;6.794;2023-03-01T10:25:44;7.00;;;6.10;;
17636;SDS011;8937;51.236;6.794;2023-03-01T10:34:10;7.53;;;5.90;;
17636;SDS011;8937;51.236;6.794;2023-03-01T10:42:33;6.93;;;5.70;;
17636;SDS011;8937;51.236;6.794;2023-03-01T10:51:04;7.60;;;5.33;;
17636;SDS011;8937;51.236;6.794;2023-03-01T10:59:28;7.20;;;5.63;;
17636;SDS011;8937;51.236;6.794;2023-03-01T11:07:50;7.47;;;4.13;;
17636;SDS011;8937;51.236;6.794;2023-03-01T11:16:13;5.67;;;4.07;;
17636;SDS011;8937;51.236;6.794;2023-03-01T11:24:37;6.33;;;5.17;;
17636;SDS011;8937;51.236;6.794;2023-03-01T11:33:05;7.53;;;4.93;;
17636;SDS011;8937;51.236;6.794;2023-03-01T11:41:30;6.73;;;4.67;;
17636;SDS011;8937;51.236;6.794;2023-03-01T11:49:57;6.30;;;4.70;;
17636;SDS011;8937;51.236;6.794;2023-03-01T12:07:03;6.40;;;4.90;;
17636;SDS011;8937;51.236;6.794;2023-03-01T12:15:29;3.93;;;3.53;;
17636;SDS011;8937;51.236;6.794;2023-03-01T12:24:00;4.30;;;3.67;;
17636;SDS011;8937;51.236;6.794;2023-03-01T12:32:27;5.30;;;4.20;;
17636;SDS011;8937;51.236;6.794;2023-03-01T12:41:04;4.67;;;3.63;;
17636;SDS011;8937;51.236;6.794;2023-03-01T12:49:31;5.83;;;3.70;;
17636;SDS011;8937;51.236;6.794;2023-03-01T12:57:57;3.90;;;3.53;;
17636;SDS011;8937;51.236;6.794;2023-03-01T13:06:21;5.43;;;4.57;;
17636;SDS011;8937;51.236;6.794;2023-03-01T13:14:47;5.80;;;4.17;;
17636;SDS011;8937;51.236;6.794;2023-03-01T13:23:09;3.53;;;3.23;;
17636;SDS011;8937;51.236;6.794;2023-03-01T13:49:11;5.77;;;4.23;;
17636;SDS011;8937;51.236;6.794;2023-03-01T13:57:36;6.53;;;4.40;;
17636;SDS011;8937;51.236;6.794;2023-03-01T14:06:03;10.17;;;4.97;;
17636;SDS011;8937;51.236;6.794;2023-03-01T14:14:34;6.30;;;5.10;;
17636;SDS011;8937;51.236;6.794;2023-03-01T14:23:01;5.23;;;4.50;;
17636;SDS011;8937;51.236;6.794;2023-03-01T14:31:35;8.73;;;4.47;;
17636;SDS011;8937;51.236;6.794;2023-03-01T14:39:59;7.30;;;4.80;;
17636;SDS011;8937;51.236;6.794;2023-03-01T14:48:21;6.27;;;4.43;;
17636;SDS011;8937;51.236;6.794;2023-03-01T14:56:44;5.83;;;4.50;;
17636;SDS011;8937;51.236;6.794;2023-03-01T15:05:06;4.70;;;4.30;;
17636;SDS011;8937;51.236;6.794;2023-03-01T15:13:31;4.17;;;3.70;;
17636;SDS011;8937;51.236;6.794;2023-03-01T15:21:52;4.10;;;3.53;;
17636;SDS011;8937;51.236;6.794;2023-03-01T15:30:17;12.97;;;5.20;;
17636;SDS011;8937;51.236;6.794;2023-03-01T15:38:50;5.83;;;4.20;;
17636;SDS011;8937;51.236;6.794;2023-03-01T15:47:23;6.13;;;4.30;;
17636;SDS011;8937;51.236;6.794;2023-03-01T15:55:45;6.07;;;4.23;;
17636;SDS011;8937;51.236;6.794;2023-03-01T16:04:11;4.17;;;3.10;;
17636;SDS011;8937;51.236;6.794;2023-03-01T16:12:36;4.93;;;3.50;;
17636;SDS011;8937;51.236;6.794;2023-03-01T16:21:00;5.23;;;3.30;;
17636;SDS011;8937;51.236;6.794;2023-03-01T16:29:21;5.63;;;3.50;;
17636;SDS011;8937;51.236;6.794;2023-03-01T16:37:44;4.30;;;3.40;;
17636;SDS011;8937;51.236;6.794;2023-03-01T16:46:09;3.63;;;3.33;;
17636;SDS011;8937;51.236;6.794;2023-03-01T16:54:32;3.77;;;3.47;;
17636;SDS011;8937;51.236;6.794;2023-03-01T17:02:53;3.87;;;3.20;;
17636;SDS011;8937;51.236;6.794;2023-03-01T17:11:17;3.53;;;3.23;;
17636;SDS011;8937;51.236;6.794;2023-03-01T17:19:38;4.43;;;3.43;;
17636;SDS011;8937;51.236;6.794;2023-03-01T17:28:04;4.03;;;3.37;;
17636;SDS011;8937;51.236;6.794;2023-03-01T17:36:26;3.80;;;3.10;;
17636;SDS011;8937;51.236;6.794;2023-03-01T17:44:49;3.30;;;3.00;;
17636;SDS011;8937;51.236;6.794;2023-03-01T17:53:13;6.00;;;3.20;;
17636;SDS011;8937;51.236;6.794;2023-03-01T18:01:36;5.40;;;2.83;;
17636;SDS011;8937;51.236;6.794;2023-03-01T18:09:58;4.57;;;3.10;;
17636;SDS011;8937;51.236;6.794;2023-03-01T18:18:20;3.73;;;3.37;;
17636;SDS011;8937;51.236;6.794;2023-03-01T18:26:42;3.97;;;3.37;;
17636;SDS011;8937;51.236;6.794;2023-03-01T18:35:05;2.87;;;2.63;;
17636;SDS011;8937;51.236;6.794;2023-03-01T18:43:27;3.17;;;2.67;;
17636;SDS011;8937;51.236;6.794;2023-03-01T18:51:50;3.53;;;2.33;;
17636;SDS011;8937;51.236;6.794;2023-03-01T19:00:12;3.90;;;3.07;;
17636;SDS011;8937;51.236;6.794;2023-03-01T19:08:35;8.20;;;3.53;;
17636;SDS011;8937;51.236;6.794;2023-03-01T19:16:57;5.50;;;3.37;;
17636;SDS011;8937;51.236;6.794;2023-03-01T19:25:20;3.83;;;3.30;;
17636;SDS011;8937;51.236;6.794;2023-03-01T19:33:41;3.77;;;3.40;;
17636;SDS011;8937;51.236;6.794;2023-03-01T19:42:04;3.27;;;2.73;;
17636;SDS011;8937;51.236;6.794;2023-03-01T19:50:26;4.00;;;2.90;;
17636;SDS011;8937;51.236;6.794;2023-03-01T19:58:49;4.17;;;3.17;;
17636;SDS011;8937;51.236;6.794;2023-03-01T20:07:13;4.53;;;2.73;;
17636;SDS011;8937;51.236;6.794;2023-03-01T20:15:35;6.03;;;3.13;;
17636;SDS011;8937;51.236;6.794;2023-03-01T20:23:58;4.03;;;2.90;;
17636;SDS011;8937;51.236;6.794;2023-03-01T20:32:21;9.30;;;6.27;;
17636;SDS011;8937;51.236;6.794;2023-03-01T20:40:43;4.07;;;3.23;;
17636;SDS011;8937;51.236;6.794;2023-03-01T20:49:06;6.50;;;3.37;;
17636;SDS011;8937;51.236;6.794;2023-03-01T20:57:27;3.13;;;2.83;;
17636;SDS011;8937;51.236;6.794;2023-03-01T21:05:50;4.97;;;3.50;;
17636;SDS011;8937;51.236;6.794;2023-03-01T21:14:11;2.63;;;2.43;;
17636;SDS011;8937;51.236;6.794;2023-03-01T21:22:34;2.87;;;2.60;;
17636;SDS011;8937;51.236;6.794;2023-03-01T21:30:56;2.83;;;2.53;;
17636;SDS011;8937;51.236;6.794;2023-03-01T21:39:19;3.90;;;3.07;;
17636;SDS011;8937;51.236;6.794;2023-03-01T21:47:45;3.47;;;2.83;;
17636;SDS011;8937;51.236;6.794;2023-03-01T21:56:09;3.20;;;2.90;;
17636;SDS011;8937;51.236;6.794;2023-03-01T22:04:30;3.37;;;2.77;;
17636;SDS011;8937;51.236;6.794;2023-03-01T22:12:53;3.43;;;3.13;;
17636;SDS011;8937;51.236;6.794;2023-03-01T22:21:15;4.77;;;3.47;;
17636;SDS011;8937;51.236;6.794;2023-03-01T22:29:38;3.20;;;2.67;;
17636;SDS011;8937;51.236;6.794;2023-03-01T22:37:59;3.60;;;2.80;;
17636;SDS011;8937;51.236;6.794;2023-03-01T22:46:22;3.40;;;2.63;;
17636;SDS011;8937;51.236;6.794;2023-03-01T22:54:44;4.53;;;3.00;;
17636;SDS011;8937;51.236;6.794;2023-03-01T23:03:07;10.97;;;5.20;;
17636;SDS011;8937;51.236;6.794;2023-03-01T23:11:28;5.30;;;3.27;;
17636;SDS011;8937;51.236;6.794;2023-03-01T23:19:51;4.33;;;3.23;;
17636;SDS011;8937;51.236;6.794;2023-03-01T23:28:12;7.33;;;3.50;;
17636;SDS011;8937;51.236;6.794;2023-03-01T23:36:35;3.63;;;2.87;;
17636;SDS011;8937;51.236;6.794;2023-03-01T23:44:58;4.93;;;3.17;;
17636;SDS011;8937;51.236;6.794;2023-03-01T23:53:20;4.27;;;3.30;;
